createdAt,value
2023-06-11T00:04:36.918Z,4.07
2023-06-11T00:07:10.659Z,2.70
2023-06-11T00:12:17.202Z,3.50
2023-06-11T00:14:50.659Z,4.82
2023-06-11T00:17:23.927Z,2.78
2023-06-11T00:19:58.569Z,3.00
2023-06-11T00:22:32.989Z,2.55
2023-06-11T00:25:07.366Z,3.13
2023-06-11T00:27:40.859Z,2.78
2023-06-11T00:30:14.871Z,3.35
2023-06-11T00:32:48.268Z,2.50
2023-06-11T00:35:23.234Z,3.35
2023-06-11T00:37:58.751Z,2.97
2023-06-11T00:40:32.776Z,2.42
2023-06-11T00:43:08.632Z,2.88
2023-06-11T00:45:42.451Z,3.08
2023-06-11T00:48:16.952Z,2.67
2023-06-11T00:50:53.189Z,2.60
2023-06-11T00:53:26.809Z,2.75
2023-06-11T00:56:00.167Z,3.00
2023-06-11T00:58:34.511Z,2.83
2023-06-11T01:01:08.866Z,3.47
2023-06-11T01:03:42.496Z,3.15
2023-06-11T01:06:19.492Z,2.65
2023-06-11T01:08:56.558Z,2.50
2023-06-11T01:11:36.586Z,2.80
2023-06-11T01:14:17.666Z,2.90
2023-06-11T01:16:54.680Z,2.50
2023-06-11T01:19:54.110Z,2.85
2023-06-11T01:22:34.679Z,2.63
2023-06-11T01:25:18.438Z,2.60
2023-06-11T01:28:11.265Z,2.85
2023-06-11T01:30:49.742Z,3.08
2023-06-11T01:33:25.780Z,3.10
2023-06-11T01:36:00.715Z,3.08
2023-06-11T01:38:43.104Z,2.63
2023-06-11T01:41:22.796Z,2.63
2023-06-11T01:43:57.487Z,3.25
2023-06-11T01:46:30.901Z,2.63
2023-06-11T01:49:04.351Z,2.92
2023-06-11T01:51:38.793Z,2.72
2023-06-11T01:54:12.162Z,2.60
2023-06-11T01:56:45.803Z,2.97
2023-06-11T01:59:22.485Z,2.67
2023-06-11T02:01:55.787Z,3.10
2023-06-11T02:04:29.257Z,3.03
2023-06-11T02:07:02.715Z,3.20
2023-06-11T02:09:36.331Z,3.13
2023-06-11T02:12:10.100Z,3.13
2023-06-11T02:19:51.593Z,3.45
2023-06-11T02:22:25.173Z,2.70
2023-06-11T02:24:58.464Z,3.40
2023-06-11T02:27:32.009Z,3.92
2023-06-11T02:30:10.307Z,2.72
2023-06-11T02:32:43.847Z,2.78
2023-06-11T02:35:17.331Z,3.05
2023-06-11T02:37:50.649Z,5.00
2023-06-11T02:40:23.901Z,3.88
2023-06-11T02:42:57.287Z,2.88
2023-06-11T02:45:31.991Z,2.90
2023-06-11T02:48:05.417Z,2.70
2023-06-11T02:50:38.832Z,2.90
2023-06-11T02:53:12.189Z,2.85
2023-06-11T02:55:45.468Z,3.10
2023-06-11T02:58:18.763Z,4.35
2023-06-11T03:00:53.427Z,2.65
2023-06-11T03:03:26.842Z,3.33
2023-06-11T03:06:02.201Z,3.03
2023-06-11T03:08:36.259Z,2.90
2023-06-11T03:11:09.593Z,2.28
2023-06-11T03:13:46.466Z,2.65
2023-06-11T03:16:21.234Z,2.80
2023-06-11T03:18:54.599Z,2.60
2023-06-11T03:21:27.888Z,2.85
2023-06-11T03:24:01.316Z,2.55
2023-06-11T03:26:34.668Z,3.38
2023-06-11T03:29:08.028Z,2.92
2023-06-11T03:31:51.034Z,3.40
2023-06-11T03:34:25.732Z,3.03
2023-06-11T03:37:01.312Z,2.72
2023-06-11T03:39:34.766Z,3.13
2023-06-11T03:42:09.023Z,3.55
2023-06-11T03:44:42.777Z,2.88
2023-06-11T03:47:20.669Z,2.67
2023-06-11T03:49:54.401Z,2.58
2023-06-11T03:52:27.781Z,2.70
2023-06-11T03:55:02.602Z,2.55
2023-06-11T03:57:36.220Z,3.05
2023-06-11T04:00:11.124Z,3.15
2023-06-11T04:02:52.618Z,2.38
2023-06-11T04:05:27.916Z,3.45
2023-06-11T04:08:03.376Z,2.83
2023-06-11T04:13:10.591Z,2.60
2023-06-11T04:15:44.155Z,2.95
2023-06-11T04:18:20.195Z,2.60
2023-06-11T04:20:55.764Z,2.97
2023-06-11T04:23:29.330Z,2.58
2023-06-11T04:28:37.286Z,2.05
2023-06-11T04:31:12.880Z,2.45
2023-06-11T04:33:49.036Z,2.50
2023-06-11T04:36:25.768Z,2.47
2023-06-11T04:39:02.754Z,2.83
2023-06-11T04:41:38.968Z,2.97
2023-06-11T04:44:13.444Z,2.50
2023-06-11T04:46:47.355Z,2.67
2023-06-11T04:49:23.586Z,2.65
2023-06-11T04:51:59.402Z,2.63
2023-06-11T04:54:33.333Z,2.35
2023-06-11T04:57:10.925Z,1.88
2023-06-11T04:59:44.336Z,3.13
2023-06-11T05:02:18.349Z,2.80
2023-06-11T05:04:54.940Z,2.83
2023-06-11T05:07:28.524Z,2.53
2023-06-11T05:10:02.463Z,2.25
2023-06-11T05:12:36.882Z,3.20
2023-06-11T05:15:11.581Z,2.97
2023-06-11T05:17:47.106Z,2.40
2023-06-11T05:20:22.108Z,2.45
2023-06-11T05:22:59.811Z,2.60
2023-06-11T05:25:36.536Z,2.63
2023-06-11T05:28:11.658Z,2.35
2023-06-11T05:30:46.521Z,3.05
2023-06-11T05:33:21.703Z,3.25
2023-06-11T05:35:56.535Z,2.78
2023-06-11T05:38:30.832Z,2.90
2023-06-11T05:41:04.757Z,2.08
2023-06-11T05:43:38.866Z,2.72
2023-06-11T05:46:12.399Z,2.60
2023-06-11T05:48:46.751Z,2.80
2023-06-11T05:51:21.449Z,2.17
2023-06-11T05:53:54.778Z,2.75
2023-06-11T05:59:02.028Z,2.50
2023-06-11T06:01:36.223Z,2.25
2023-06-11T06:04:10.795Z,2.78
2023-06-11T06:06:45.523Z,2.58
2023-06-11T06:09:20.378Z,2.53
2023-06-11T06:11:54.337Z,2.83
2023-06-11T06:14:27.817Z,2.90
2023-06-11T06:17:01.515Z,2.60
2023-06-11T06:19:41.350Z,2.65
2023-06-11T06:22:17.518Z,2.30
2023-06-11T06:24:50.924Z,1.80
2023-06-11T06:27:24.400Z,2.42
2023-06-11T06:29:58.239Z,2.60
2023-06-11T06:32:31.586Z,2.15
2023-06-11T06:35:05.097Z,2.67
2023-06-11T06:37:39.718Z,2.47
2023-06-11T06:40:14.330Z,2.53
2023-06-11T06:42:48.401Z,2.25
2023-06-11T06:45:24.807Z,2.70
2023-06-11T06:47:58.278Z,2.65
2023-06-11T06:50:32.959Z,1.80
2023-06-11T06:53:07.786Z,2.70
2023-06-11T06:55:41.071Z,2.80
2023-06-11T06:58:15.616Z,2.40
2023-06-11T07:00:50.348Z,2.42
2023-06-11T07:03:25.106Z,2.08
2023-06-11T07:05:58.509Z,2.28
2023-06-11T07:08:33.393Z,4.93
2023-06-11T07:11:07.197Z,2.25
2023-06-11T07:13:49.981Z,2.20
2023-06-11T07:16:23.412Z,2.53
2023-06-11T07:19:01.924Z,2.65
2023-06-11T07:21:37.126Z,2.42
2023-06-11T07:24:12.374Z,1.90
2023-06-11T07:26:46.344Z,2.60
2023-06-11T07:31:53.323Z,2.40
2023-06-11T07:34:26.928Z,2.28
2023-06-11T07:37:00.266Z,2.50
2023-06-11T07:39:34.889Z,2.28
2023-06-11T07:42:08.871Z,3.03
2023-06-11T07:44:42.486Z,2.00
2023-06-11T07:47:15.764Z,2.35
2023-06-11T07:49:49.480Z,2.28
2023-06-11T07:52:23.558Z,2.33
2023-06-11T07:54:58.751Z,2.42
2023-06-11T07:57:32.061Z,2.15
2023-06-11T08:00:11.876Z,2.25
2023-06-11T08:02:46.371Z,1.90
2023-06-11T08:05:19.911Z,2.10
2023-06-11T08:07:53.204Z,2.65
2023-06-11T08:10:28.013Z,2.95
2023-06-11T08:13:01.618Z,2.60
2023-06-11T08:15:34.896Z,2.28
2023-06-11T08:18:08.286Z,2.30
2023-06-11T08:20:41.617Z,2.63
2023-06-11T08:23:14.881Z,2.03
2023-06-11T08:25:49.498Z,1.80
2023-06-11T08:28:22.804Z,2.72
2023-06-11T08:30:56.941Z,2.17
2023-06-11T08:33:30.313Z,2.30
2023-06-11T08:36:04.459Z,3.10
2023-06-11T08:38:39.058Z,1.88
2023-06-11T08:41:14.228Z,2.28
2023-06-11T08:43:47.669Z,2.10
2023-06-11T08:46:24.587Z,2.17
2023-06-11T08:49:00.857Z,1.98
2023-06-11T08:51:38.157Z,2.53
2023-06-11T08:54:11.907Z,2.03
2023-06-11T08:56:46.902Z,2.28
2023-06-11T08:59:20.317Z,2.05
2023-06-11T09:01:53.763Z,2.28
2023-06-11T09:04:27.214Z,2.30
2023-06-11T09:07:02.036Z,2.25
2023-06-11T09:09:35.316Z,1.70
2023-06-11T09:12:11.879Z,2.25
2023-06-11T09:14:53.450Z,2.25
2023-06-11T09:17:27.643Z,1.92
2023-06-11T09:20:05.688Z,1.83
2023-06-11T09:22:39.910Z,2.30
2023-06-11T09:25:17.920Z,2.65
2023-06-11T09:27:52.650Z,1.83
2023-06-11T09:30:25.947Z,1.88
2023-06-11T09:32:59.281Z,1.80
2023-06-11T09:35:33.213Z,1.98
2023-06-11T09:38:06.693Z,1.90
2023-06-11T09:40:40.314Z,2.25
2023-06-11T09:43:15.114Z,2.28
2023-06-11T09:45:53.726Z,1.92
2023-06-11T09:48:27.542Z,1.73
2023-06-11T09:53:36.392Z,1.70
2023-06-11T09:56:12.037Z,1.80
2023-06-11T09:58:50.271Z,2.13
2023-06-11T10:01:23.916Z,2.78
2023-06-11T10:03:57.233Z,2.42
2023-06-11T10:06:34.061Z,2.63
2023-06-11T10:09:12.284Z,1.50
2023-06-11T10:11:46.980Z,1.58
2023-06-11T10:14:25.386Z,1.60
2023-06-11T10:16:58.685Z,2.28
2023-06-11T10:19:37.293Z,2.20
2023-06-11T10:22:11.114Z,1.77
2023-06-11T10:27:18.314Z,2.85
2023-06-11T10:29:52.882Z,1.58
2023-06-11T10:32:26.915Z,1.83
2023-06-11T10:35:01.921Z,1.70
2023-06-11T10:37:37.938Z,1.70
2023-06-11T10:40:13.283Z,1.92
2023-06-11T10:42:53.020Z,2.00
2023-06-11T10:45:35.904Z,1.42
2023-06-11T10:48:09.395Z,1.75
2023-06-11T10:50:42.781Z,1.70
2023-06-11T10:53:15.946Z,2.05
2023-06-11T10:55:51.495Z,1.88
2023-06-11T10:58:25.289Z,1.90
2023-06-11T11:01:00.545Z,1.73
2023-06-11T11:03:36.228Z,1.65
2023-06-11T11:06:10.818Z,1.75
2023-06-11T11:08:44.033Z,3.28
2023-06-11T11:11:17.984Z,2.03
2023-06-11T11:13:51.861Z,1.75
2023-06-11T11:19:00.072Z,1.80
2023-06-11T11:21:33.631Z,1.60
2023-06-11T11:24:10.349Z,1.60
2023-06-11T11:26:45.280Z,1.42
2023-06-11T11:29:18.557Z,2.00
2023-06-11T11:31:53.385Z,1.40
2023-06-11T11:34:28.424Z,1.80
2023-06-11T11:37:01.807Z,1.77
2023-06-11T11:39:35.114Z,1.70
2023-06-11T11:42:10.754Z,2.03
2023-06-11T11:44:44.531Z,1.63
2023-06-11T11:47:21.572Z,2.00
2023-06-11T11:49:56.113Z,2.30
2023-06-11T11:52:29.367Z,1.60
2023-06-11T11:55:03.162Z,1.60
2023-06-11T12:00:15.154Z,1.85
2023-06-11T12:02:50.116Z,1.55
2023-06-11T12:05:23.540Z,1.67
2023-06-11T12:07:56.897Z,1.65
2023-06-11T12:10:30.181Z,2.10
2023-06-11T12:13:03.687Z,2.22
2023-06-11T12:15:36.897Z,1.77
2023-06-11T12:18:11.500Z,1.92
2023-06-11T12:20:44.888Z,1.35
2023-06-11T12:23:18.146Z,1.52
2023-06-11T12:25:51.526Z,1.73
2023-06-11T12:28:24.835Z,1.48
2023-06-11T12:30:58.296Z,1.70
2023-06-11T12:33:32.939Z,1.83
2023-06-11T12:36:06.840Z,1.50
2023-06-11T12:38:40.618Z,1.50
2023-06-11T12:43:46.954Z,1.33
2023-06-11T12:46:20.267Z,1.63
2023-06-11T12:48:54.926Z,1.75
2023-06-11T12:51:28.207Z,2.20
2023-06-11T12:54:01.471Z,1.10
2023-06-11T12:56:34.803Z,1.50
2023-06-11T12:59:09.050Z,1.55
2023-06-11T13:01:42.298Z,1.88
2023-06-11T13:04:16.956Z,1.50
2023-06-11T13:06:50.194Z,1.33
2023-06-11T13:09:23.688Z,1.58
2023-06-11T13:11:57.018Z,1.65
2023-06-11T13:14:30.509Z,2.88
2023-06-11T13:17:03.861Z,2.20
2023-06-11T13:19:38.435Z,3.63
2023-06-11T13:22:13.574Z,1.60
2023-06-11T13:24:46.855Z,1.60
2023-06-11T13:27:20.137Z,1.88
2023-06-11T13:29:53.373Z,1.67
2023-06-11T13:32:26.807Z,1.60
2023-06-11T13:35:01.674Z,1.58
2023-06-11T13:37:35.129Z,1.60
2023-06-11T13:40:10.237Z,1.27
2023-06-11T13:42:43.914Z,1.60
2023-06-11T13:45:17.261Z,1.45
2023-06-11T13:47:50.748Z,1.85
2023-06-11T13:50:25.721Z,1.70
2023-06-11T13:52:59.030Z,1.65
2023-06-11T13:55:32.267Z,1.67
2023-06-11T13:58:06.531Z,1.58
2023-06-11T14:00:40.061Z,1.70
2023-06-11T14:03:14.220Z,2.17
2023-06-11T14:05:48.934Z,1.55
2023-06-11T14:08:22.237Z,1.60
2023-06-11T14:10:55.460Z,1.50
2023-06-11T14:13:28.802Z,2.05
2023-06-11T14:16:02.032Z,1.33
2023-06-11T14:18:35.310Z,1.40
2023-06-11T14:21:09.903Z,1.23
2023-06-11T14:23:43.210Z,1.85
2023-06-11T14:26:16.839Z,1.55
2023-06-11T14:28:52.132Z,1.55
2023-06-11T14:31:25.382Z,1.80
2023-06-11T14:33:58.699Z,1.77
2023-06-11T14:36:33.564Z,1.83
2023-06-11T14:39:07.107Z,1.58
2023-06-11T14:41:40.357Z,1.65
2023-06-11T14:44:13.983Z,1.42
2023-06-11T14:46:47.400Z,1.65
2023-06-11T14:49:21.496Z,1.90
2023-06-11T14:51:59.280Z,1.70
2023-06-11T14:54:34.053Z,3.10
2023-06-11T14:57:14.374Z,6.20
2023-06-11T14:59:47.916Z,6.40
2023-06-11T15:02:23.832Z,4.97
2023-06-11T15:04:57.358Z,9.07
2023-06-11T15:07:35.514Z,8.43
2023-06-11T15:10:11.602Z,5.22
2023-06-11T15:12:45.142Z,5.72
2023-06-11T15:15:18.408Z,6.43
2023-06-11T15:17:51.761Z,7.68
2023-06-11T15:20:25.470Z,10.70
2023-06-11T15:23:00.080Z,9.90
2023-06-11T15:25:33.337Z,8.23
2023-06-11T15:28:06.767Z,6.03
2023-06-11T15:30:40.063Z,10.45
2023-06-11T15:33:13.816Z,7.13
2023-06-11T15:38:21.651Z,15.60
2023-06-11T15:40:54.901Z,13.55
2023-06-11T15:43:28.118Z,7.13
2023-06-11T15:46:01.343Z,6.28
2023-06-11T15:48:34.682Z,6.55
2023-06-11T15:51:08.024Z,14.88
2023-06-11T15:53:42.691Z,8.85
2023-06-11T15:56:15.958Z,9.15
2023-06-11T15:58:49.724Z,18.65
2023-06-11T16:03:56.445Z,7.22
2023-06-11T16:06:29.709Z,4.43
2023-06-11T16:09:04.656Z,7.32
2023-06-11T16:11:38.434Z,9.10
2023-06-11T16:14:11.754Z,11.05
2023-06-11T16:16:45.059Z,11.25
2023-06-11T16:19:18.398Z,9.63
2023-06-11T16:21:51.642Z,10.93
2023-06-11T16:24:26.585Z,9.45
2023-06-11T16:27:00.027Z,8.27
2023-06-11T16:29:33.380Z,10.57
2023-06-11T16:32:08.195Z,26.70
2023-06-11T16:34:41.811Z,37.33
2023-06-11T16:37:15.236Z,31.00
2023-06-11T16:39:49.977Z,26.15
2023-06-11T16:42:24.088Z,20.70
2023-06-11T16:44:57.458Z,22.27
2023-06-11T16:47:30.985Z,38.67
2023-06-11T16:50:04.417Z,28.70
2023-06-11T16:52:37.677Z,24.77
2023-06-11T16:55:12.644Z,22.20
2023-06-11T16:57:46.210Z,23.42
2023-06-11T17:00:20.542Z,21.02
2023-06-11T17:02:55.934Z,22.85
2023-06-11T17:05:29.533Z,30.63
2023-06-11T17:08:03.258Z,22.63
2023-06-11T17:10:38.104Z,25.73
2023-06-11T17:13:11.450Z,23.13
2023-06-11T17:15:44.869Z,22.88
2023-06-11T17:18:18.262Z,20.40
2023-06-11T17:20:51.776Z,22.92
2023-06-11T17:23:25.025Z,15.40
2023-06-11T17:25:59.692Z,17.58
2023-06-11T17:28:32.888Z,21.45
2023-06-11T17:31:09.266Z,16.08
2023-06-11T17:33:42.568Z,18.17
2023-06-11T17:36:15.816Z,15.82
2023-06-11T17:38:49.173Z,16.55
2023-06-11T17:41:24.838Z,18.80
2023-06-11T17:43:58.140Z,16.80
2023-06-11T17:46:31.606Z,13.25
2023-06-11T17:49:05.080Z,15.00
2023-06-11T17:51:38.395Z,17.20
2023-06-11T17:54:12.450Z,11.43
2023-06-11T17:56:47.065Z,10.50
2023-06-11T17:59:21.208Z,12.57
2023-06-11T18:01:54.749Z,11.75
2023-06-11T18:04:28.066Z,10.82
2023-06-11T18:07:01.335Z,13.13
2023-06-11T18:09:34.594Z,8.38
2023-06-11T18:12:10.161Z,9.07
2023-06-11T18:14:43.445Z,8.52
2023-06-11T18:17:16.799Z,12.25
2023-06-11T18:19:50.073Z,16.45
2023-06-11T18:22:25.657Z,9.70
2023-06-11T18:24:58.915Z,7.40
2023-06-11T18:27:33.548Z,9.80
2023-06-11T18:30:08.642Z,10.15
2023-06-11T18:32:41.990Z,10.80
2023-06-11T18:35:15.546Z,9.07
2023-06-11T18:37:49.332Z,9.85
2023-06-11T18:42:57.015Z,9.13
2023-06-11T18:45:30.598Z,7.93
2023-06-11T18:48:04.019Z,15.32
2023-06-11T18:50:37.336Z,9.32
2023-06-11T18:53:11.683Z,10.93
2023-06-11T18:55:45.185Z,9.00
2023-06-11T18:58:19.778Z,12.30
2023-06-11T19:00:53.199Z,15.50
2023-06-11T19:03:26.546Z,13.77
2023-06-11T19:05:59.822Z,14.05
2023-06-11T19:08:34.191Z,10.90
2023-06-11T19:11:07.469Z,10.82
2023-06-11T19:13:45.357Z,14.40
2023-06-11T19:16:18.733Z,9.95
2023-06-11T19:18:52.031Z,19.98
2023-06-11T19:21:26.141Z,23.02
2023-06-11T19:23:59.476Z,10.55
2023-06-11T19:26:32.803Z,11.40
2023-06-11T19:29:07.580Z,17.95
2023-06-11T19:31:41.019Z,10.43
2023-06-11T19:34:16.987Z,9.27
2023-06-11T19:36:51.938Z,10.82
2023-06-11T19:39:25.197Z,7.90
2023-06-11T19:41:58.441Z,9.75
2023-06-11T19:44:33.916Z,11.60
2023-06-11T19:47:08.817Z,8.63
2023-06-11T19:49:42.138Z,14.52
2023-06-11T19:52:15.535Z,7.38
2023-06-11T19:54:51.852Z,8.35
2023-06-11T19:57:25.472Z,7.75
2023-06-11T20:00:00.933Z,6.43
2023-06-11T20:02:34.295Z,11.00
2023-06-11T20:05:08.913Z,5.47
2023-06-11T20:07:42.218Z,6.00
2023-06-11T20:10:15.661Z,10.48
2023-06-11T20:12:48.981Z,6.03
2023-06-11T20:15:23.632Z,9.63
2023-06-11T20:17:56.959Z,10.15
2023-06-11T20:20:30.302Z,7.93
2023-06-11T20:23:03.593Z,11.48
2023-06-11T20:25:36.829Z,10.48
2023-06-11T20:28:10.635Z,8.38
2023-06-11T20:33:18.892Z,7.97
2023-06-11T20:38:25.789Z,5.47
2023-06-11T20:40:59.486Z,8.15
2023-06-11T20:43:32.759Z,7.30
2023-06-11T20:46:23.539Z,6.53
2023-06-11T20:49:00.610Z,9.48
2023-06-11T20:51:33.886Z,9.27
2023-06-11T20:54:07.196Z,5.75
2023-06-11T20:56:40.553Z,7.15
2023-06-11T20:59:13.869Z,5.50
2023-06-11T21:01:48.591Z,6.72
2023-06-11T21:04:21.868Z,6.45
2023-06-11T21:06:55.070Z,4.90
2023-06-11T21:09:28.337Z,5.30
2023-06-11T21:12:02.940Z,7.20
2023-06-11T21:14:36.185Z,7.03
2023-06-11T21:17:10.888Z,9.32
2023-06-11T21:19:44.218Z,5.32
2023-06-11T21:22:17.486Z,6.68
2023-06-11T21:24:50.743Z,8.35
2023-06-11T21:27:24.030Z,5.10
2023-06-11T21:29:57.434Z,5.28
2023-06-11T21:32:32.102Z,7.82
2023-06-11T21:35:05.989Z,7.65
2023-06-11T21:37:39.210Z,6.53
2023-06-11T21:40:13.924Z,7.22
2023-06-11T21:42:47.572Z,9.60
2023-06-11T21:45:20.822Z,9.13
2023-06-11T21:47:55.557Z,8.38
2023-06-11T21:50:28.946Z,8.30
2023-06-11T21:53:02.277Z,5.63
2023-06-11T21:55:35.699Z,4.90
2023-06-11T21:58:09.278Z,7.15
2023-06-11T22:00:42.631Z,4.30
2023-06-11T22:03:18.518Z,4.50
2023-06-11T22:05:53.811Z,4.28
2023-06-11T22:08:27.373Z,6.22
2023-06-11T22:11:00.626Z,5.35
2023-06-11T22:13:34.067Z,4.53
2023-06-11T22:16:07.291Z,5.05
2023-06-11T22:18:45.113Z,4.68
2023-06-11T22:21:18.702Z,6.18
2023-06-11T22:23:52.630Z,5.10
2023-06-11T22:26:28.832Z,4.10
2023-06-11T22:29:02.189Z,7.13
2023-06-11T22:31:36.476Z,5.68
2023-06-11T22:34:12.060Z,5.97
2023-06-11T22:36:45.532Z,7.70
2023-06-11T22:39:18.790Z,6.43
2023-06-11T22:41:52.070Z,4.30
2023-06-11T22:44:25.384Z,4.35
2023-06-11T22:46:58.784Z,4.88
2023-06-11T22:49:34.125Z,4.32
2023-06-11T22:52:09.334Z,4.60
2023-06-11T22:54:42.547Z,6.00
2023-06-11T22:57:15.824Z,4.88
2023-06-11T22:59:49.104Z,4.93
2023-06-11T23:02:22.446Z,5.47
2023-06-11T23:04:57.099Z,4.22
2023-06-11T23:07:32.264Z,5.20
2023-06-11T23:10:06.518Z,5.82
2023-06-11T23:12:39.781Z,7.72
2023-06-11T23:15:13.149Z,6.35
2023-06-11T23:17:51.265Z,4.72
2023-06-11T23:20:28.660Z,5.35
2023-06-11T23:23:05.804Z,5.80
2023-06-11T23:25:40.147Z,4.95
2023-06-11T23:28:14.447Z,4.00
2023-06-11T23:30:48.114Z,5.57
2023-06-11T23:33:21.485Z,4.75
2023-06-11T23:35:56.130Z,4.80
2023-06-11T23:38:29.433Z,7.75
2023-06-11T23:41:02.661Z,5.00
2023-06-11T23:43:35.884Z,4.25
2023-06-11T23:46:12.694Z,3.30
2023-06-11T23:48:46.003Z,5.65
2023-06-11T23:51:21.254Z,6.28
2023-06-11T23:53:54.965Z,5.38
2023-06-11T23:59:04.325Z,4.57
